createdAt,value
2022-07-27T00:01:21.046Z,5.22
2022-07-27T00:03:50.803Z,4.30
2022-07-27T00:06:18.988Z,4.90
2022-07-27T00:08:47.189Z,4.63
2022-07-27T00:11:16.032Z,3.78
2022-07-27T00:13:45.321Z,9.15
2022-07-27T00:16:13.737Z,3.88
2022-07-27T00:18:42.247Z,3.90
2022-07-27T00:21:11.856Z,5.32
2022-07-27T00:23:40.867Z,5.10
2022-07-27T00:26:09.102Z,3.47
2022-07-27T00:28:37.265Z,3.97
2022-07-27T00:31:05.508Z,2.58
2022-07-27T00:33:33.797Z,4.72
2022-07-27T00:36:03.007Z,6.95
2022-07-27T00:38:32.614Z,4.15
2022-07-27T00:41:01.048Z,3.90
2022-07-27T00:43:29.259Z,2.70
2022-07-27T00:45:57.633Z,2.08
2022-07-27T00:48:26.554Z,5.65
2022-07-27T00:50:57.939Z,3.78
2022-07-27T00:53:26.238Z,1.65
2022-07-27T00:55:55.814Z,5.35
2022-07-27T00:58:24.651Z,3.38
2022-07-27T01:00:53.173Z,11.43
2022-07-27T01:03:23.220Z,3.88
2022-07-27T01:05:58.569Z,1.80
2022-07-27T01:08:27.003Z,4.68
2022-07-27T01:10:57.572Z,9.65
2022-07-27T01:13:27.150Z,2.92
2022-07-27T01:15:56.576Z,7.80
2022-07-27T01:18:30.207Z,4.05
2022-07-27T01:20:59.400Z,3.03
2022-07-27T01:23:32.570Z,4.57
2022-07-27T01:26:01.055Z,2.78
2022-07-27T01:28:29.619Z,4.63
2022-07-27T01:30:57.920Z,4.15
2022-07-27T01:33:27.036Z,5.03
2022-07-27T01:35:56.590Z,6.60
2022-07-27T01:38:25.130Z,3.35
2022-07-27T01:40:55.998Z,3.67
2022-07-27T01:43:24.663Z,3.67
2022-07-27T01:45:53.016Z,9.15
2022-07-27T01:48:22.304Z,9.77
2022-07-27T01:50:51.289Z,10.55
2022-07-27T01:53:19.653Z,15.50
2022-07-27T01:55:47.806Z,18.23
2022-07-27T01:58:18.041Z,17.52
2022-07-27T02:00:47.024Z,16.33
2022-07-27T02:03:15.665Z,17.15
2022-07-27T02:05:43.910Z,11.93
2022-07-27T02:08:12.195Z,13.20
2022-07-27T02:11:01.180Z,12.05
2022-07-27T02:13:29.836Z,14.65
2022-07-27T02:15:58.188Z,13.05
2022-07-27T02:18:33.506Z,9.40
2022-07-27T02:21:06.209Z,10.85
2022-07-27T02:23:35.104Z,13.45
2022-07-27T02:26:03.454Z,7.90
2022-07-27T02:28:33.219Z,10.57
2022-07-27T02:31:01.473Z,9.05
2022-07-27T02:33:30.035Z,9.88
2022-07-27T02:35:58.540Z,9.85
2022-07-27T02:38:27.087Z,12.00
2022-07-27T02:40:55.277Z,14.82
2022-07-27T02:43:23.844Z,11.82
2022-07-27T02:45:53.529Z,13.70
2022-07-27T02:48:21.933Z,14.85
2022-07-27T02:50:50.119Z,10.32
2022-07-27T02:53:18.617Z,20.20
2022-07-27T02:55:46.936Z,11.32
2022-07-27T02:58:15.090Z,10.07
2022-07-27T03:00:43.440Z,9.88
2022-07-27T03:03:12.920Z,10.18
2022-07-27T03:05:41.311Z,12.80
2022-07-27T03:08:09.705Z,18.08
2022-07-27T03:10:38.141Z,17.25
2022-07-27T03:13:06.498Z,9.80
2022-07-27T03:15:35.466Z,16.65
2022-07-27T03:18:04.219Z,9.55
2022-07-27T03:20:34.090Z,13.73
2022-07-27T03:23:02.231Z,9.30
2022-07-27T03:25:30.562Z,10.85
2022-07-27T03:28:03.849Z,10.20
2022-07-27T03:30:32.790Z,9.98
2022-07-27T03:33:01.128Z,10.52
2022-07-27T03:35:29.643Z,8.98
2022-07-27T03:37:59.373Z,8.70
2022-07-27T03:40:29.662Z,7.20
2022-07-27T03:42:58.113Z,10.30
2022-07-27T03:45:26.558Z,4.22
2022-07-27T03:47:54.785Z,5.65
2022-07-27T03:50:23.716Z,2.72
2022-07-27T03:52:52.260Z,2.83
2022-07-27T03:55:22.349Z,4.03
2022-07-27T03:57:51.012Z,4.30
2022-07-27T04:00:19.709Z,4.03
2022-07-27T04:02:48.250Z,2.67
2022-07-27T04:05:16.887Z,2.97
2022-07-27T04:07:45.094Z,2.67
2022-07-27T04:10:14.110Z,2.15
2022-07-27T04:12:43.855Z,2.75
2022-07-27T04:15:14.922Z,1.58
2022-07-27T04:17:54.018Z,2.60
2022-07-27T04:20:25.857Z,2.00
2022-07-27T04:22:54.180Z,2.60
2022-07-27T04:25:22.693Z,1.60
2022-07-27T04:27:54.749Z,4.85
2022-07-27T04:30:23.558Z,2.95
2022-07-27T04:32:51.921Z,4.13
2022-07-27T04:35:26.108Z,3.65
2022-07-27T04:37:58.593Z,4.82
2022-07-27T04:40:32.430Z,1.63
2022-07-27T04:43:03.079Z,2.53
2022-07-27T04:45:31.938Z,4.63
2022-07-27T04:48:00.486Z,4.63
2022-07-27T04:50:28.765Z,7.30
2022-07-27T04:52:56.934Z,2.13
2022-07-27T04:55:25.733Z,1.40
2022-07-27T04:57:54.060Z,3.47
2022-07-27T05:00:23.743Z,3.42
2022-07-27T05:02:51.896Z,1.73
2022-07-27T05:05:20.155Z,1.55
2022-07-27T05:07:48.349Z,4.22
2022-07-27T05:10:20.154Z,3.88
2022-07-27T05:12:49.204Z,3.35
2022-07-27T05:15:17.654Z,6.53
2022-07-27T05:17:47.482Z,1.80
2022-07-27T05:20:16.126Z,2.33
2022-07-27T05:22:44.315Z,1.75
2022-07-27T05:25:12.955Z,3.25
2022-07-27T05:27:53.822Z,4.00
2022-07-27T05:30:25.556Z,3.58
2022-07-27T05:32:55.375Z,3.33
2022-07-27T05:35:24.290Z,5.53
2022-07-27T05:37:52.459Z,4.78
2022-07-27T05:40:20.886Z,3.17
2022-07-27T05:42:49.195Z,3.30
2022-07-27T05:45:17.455Z,6.30
2022-07-27T05:47:45.811Z,12.00
2022-07-27T05:50:15.878Z,8.25
2022-07-27T05:52:44.540Z,4.93
2022-07-27T05:55:13.201Z,3.97
2022-07-27T05:57:42.204Z,3.95
2022-07-27T06:00:12.492Z,5.85
2022-07-27T06:02:41.035Z,6.93
2022-07-27T06:05:15.264Z,6.22
2022-07-27T06:07:59.959Z,7.45
2022-07-27T06:10:29.967Z,6.60
2022-07-27T06:12:58.459Z,6.70
2022-07-27T06:15:26.751Z,3.22
2022-07-27T06:17:55.135Z,4.80
2022-07-27T06:20:24.523Z,2.53
2022-07-27T06:22:56.316Z,5.25
2022-07-27T06:25:34.515Z,7.22
2022-07-27T06:28:04.482Z,5.63
2022-07-27T06:30:33.208Z,2.70
2022-07-27T06:33:01.521Z,4.80
2022-07-27T06:35:29.843Z,2.80
2022-07-27T06:38:00.531Z,4.13
2022-07-27T06:40:29.913Z,4.18
2022-07-27T06:42:58.686Z,3.30
2022-07-27T06:45:27.158Z,9.77
2022-07-27T06:47:55.286Z,6.25
2022-07-27T06:50:24.130Z,5.85
2022-07-27T06:52:52.603Z,15.98
2022-07-27T06:55:22.170Z,9.73
2022-07-27T06:57:50.361Z,8.30
2022-07-27T07:00:18.809Z,5.57
2022-07-27T07:02:54.693Z,2.60
2022-07-27T07:05:24.145Z,6.32
2022-07-27T07:07:53.099Z,2.03
2022-07-27T07:10:23.807Z,2.20
2022-07-27T07:12:56.077Z,2.00
2022-07-27T07:15:25.449Z,7.55
2022-07-27T07:17:54.446Z,3.92
2022-07-27T07:20:23.615Z,4.35
2022-07-27T07:22:52.286Z,1.50
2022-07-27T07:25:20.512Z,2.63
2022-07-27T07:27:51.082Z,5.45
2022-07-27T07:30:19.381Z,3.45
2022-07-27T07:32:47.944Z,8.18
2022-07-27T07:35:16.458Z,6.43
2022-07-27T07:37:44.812Z,2.40
2022-07-27T07:40:41.902Z,5.13
2022-07-27T07:43:09.030Z,2.65
2022-07-27T07:45:51.017Z,3.63
2022-07-27T07:48:21.496Z,5.25
2022-07-27T07:50:51.932Z,3.78
2022-07-27T07:53:21.432Z,2.97
2022-07-27T07:55:49.690Z,6.15
2022-07-27T07:58:19.265Z,2.13
2022-07-27T08:00:47.887Z,5.15
2022-07-27T08:03:17.874Z,8.73
2022-07-27T08:05:46.317Z,7.88
2022-07-27T08:08:14.719Z,5.38
2022-07-27T08:10:43.090Z,7.40
2022-07-27T08:13:11.385Z,5.65
2022-07-27T08:15:41.371Z,2.85
2022-07-27T08:18:10.110Z,1.45
2022-07-27T08:20:38.402Z,2.65
2022-07-27T08:23:06.795Z,1.83
2022-07-27T08:25:34.993Z,4.57
2022-07-27T08:28:03.522Z,11.63
2022-07-27T08:30:33.612Z,3.70
2022-07-27T08:33:05.359Z,3.78
2022-07-27T08:38:03.665Z,4.03
2022-07-27T08:40:41.839Z,5.18
2022-07-27T08:43:11.954Z,3.20
2022-07-27T08:45:44.362Z,1.10
2022-07-27T08:48:15.660Z,2.08
2022-07-27T08:50:44.421Z,3.03
2022-07-27T08:53:14.453Z,1.65
2022-07-27T08:55:44.817Z,4.22
2022-07-27T08:58:14.672Z,2.17
2022-07-27T09:00:44.476Z,7.65
2022-07-27T09:03:19.811Z,13.32
2022-07-27T09:05:51.912Z,3.58
2022-07-27T09:08:24.594Z,6.25
2022-07-27T09:10:54.714Z,7.07
2022-07-27T09:13:27.718Z,6.13
2022-07-27T09:16:18.498Z,9.68
2022-07-27T09:18:48.388Z,3.47
2022-07-27T09:21:18.743Z,10.80
2022-07-27T09:23:48.944Z,2.53
2022-07-27T09:26:35.098Z,4.70
2022-07-27T09:29:05.591Z,5.15
2022-07-27T09:31:41.897Z,1.70
2022-07-27T09:34:12.495Z,4.18
2022-07-27T09:36:54.316Z,5.90
2022-07-27T09:39:23.958Z,2.58
2022-07-27T09:41:55.326Z,5.75
2022-07-27T09:44:43.787Z,4.43
2022-07-27T09:47:26.938Z,2.15
2022-07-27T09:49:58.775Z,5.05
2022-07-27T09:54:56.782Z,12.52
2022-07-27T09:57:25.119Z,5.45
2022-07-27T10:00:10.228Z,8.48
2022-07-27T10:02:38.853Z,1.88
2022-07-27T10:05:09.329Z,3.42
2022-07-27T10:07:37.811Z,3.10
2022-07-27T10:10:07.246Z,6.85
2022-07-27T10:12:36.345Z,4.72
2022-07-27T10:15:05.221Z,3.60
2022-07-27T10:17:33.717Z,5.30
2022-07-27T10:20:05.845Z,5.38
2022-07-27T10:22:57.037Z,2.42
2022-07-27T10:25:26.943Z,3.42
2022-07-27T10:28:12.987Z,6.43
2022-07-27T10:30:41.469Z,2.20
2022-07-27T10:33:17.436Z,2.50
2022-07-27T10:35:45.665Z,3.38
2022-07-27T10:38:18.487Z,7.38
2022-07-27T10:40:47.541Z,3.30
2022-07-27T10:43:20.606Z,5.40
2022-07-27T10:46:01.670Z,1.33
2022-07-27T10:48:39.669Z,7.13
2022-07-27T10:51:11.947Z,2.97
2022-07-27T10:54:11.075Z,3.20
2022-07-27T10:56:47.114Z,1.85
2022-07-27T10:59:15.876Z,4.55
2022-07-27T11:01:58.717Z,5.90
2022-07-27T11:04:27.524Z,4.47
2022-07-27T11:07:24.073Z,2.83
2022-07-27T11:10:06.083Z,4.80
2022-07-27T11:12:36.861Z,2.75
2022-07-27T11:15:05.968Z,2.08
2022-07-27T11:20:24.086Z,3.63
2022-07-27T11:25:42.333Z,7.05
2022-07-27T11:28:10.617Z,5.50
2022-07-27T11:30:38.968Z,7.13
2022-07-27T11:33:08.204Z,2.63
2022-07-27T11:35:36.565Z,2.03
2022-07-27T11:38:06.816Z,2.63
2022-07-27T11:40:56.774Z,3.38
2022-07-27T11:43:37.114Z,1.40
2022-07-27T11:46:17.555Z,2.97
2022-07-27T11:49:05.992Z,4.00
2022-07-27T11:51:37.559Z,5.28
2022-07-27T11:54:07.815Z,3.25
2022-07-27T11:56:39.907Z,3.00
2022-07-27T11:59:14.194Z,3.28
2022-07-27T12:01:47.127Z,2.78
2022-07-27T12:04:18.991Z,1.58
2022-07-27T12:06:49.902Z,7.43
2022-07-27T12:09:19.297Z,3.15
2022-07-27T12:11:56.028Z,2.55
2022-07-27T12:14:31.104Z,1.50
2022-07-27T12:17:20.044Z,3.53
2022-07-27T12:19:53.791Z,1.42
2022-07-27T12:22:27.921Z,2.50
2022-07-27T12:24:57.306Z,1.17
2022-07-27T12:27:27.560Z,2.95
2022-07-27T12:30:09.604Z,5.47
2022-07-27T12:32:40.057Z,2.55
2022-07-27T12:35:22.598Z,1.95
2022-07-27T12:37:58.718Z,1.67
2022-07-27T12:40:27.630Z,3.33
2022-07-27T12:43:03.308Z,3.22
2022-07-27T12:45:33.986Z,1.50
2022-07-27T12:48:13.051Z,3.70
2022-07-27T12:50:43.343Z,7.00
2022-07-27T12:53:13.500Z,5.95
2022-07-27T12:55:42.928Z,2.42
2022-07-27T12:58:14.375Z,1.58
2022-07-27T13:03:11.011Z,3.45
2022-07-27T13:05:39.234Z,3.83
2022-07-27T13:08:08.406Z,7.38
2022-07-27T13:10:37.726Z,7.95
2022-07-27T13:13:06.080Z,3.83
2022-07-27T13:15:36.320Z,0.68
2022-07-27T13:18:04.684Z,3.15
2022-07-27T13:20:33.125Z,2.78
2022-07-27T13:23:01.493Z,2.80
2022-07-27T13:25:29.754Z,1.77
2022-07-27T13:27:57.944Z,6.38
2022-07-27T13:30:26.874Z,2.40
2022-07-27T13:32:56.523Z,9.88
2022-07-27T13:35:24.784Z,1.55
2022-07-27T13:37:53.114Z,2.15
2022-07-27T13:40:22.067Z,1.98
2022-07-27T13:42:50.445Z,2.28
2022-07-27T13:45:18.765Z,3.15
2022-07-27T13:47:46.996Z,4.18
2022-07-27T13:50:19.766Z,5.57
2022-07-27T13:52:49.095Z,2.55
2022-07-27T13:55:18.572Z,3.25
2022-07-27T13:57:47.880Z,1.48
2022-07-27T14:00:17.162Z,3.20
2022-07-27T14:02:46.201Z,1.15
2022-07-27T14:05:18.429Z,2.80
2022-07-27T14:07:48.842Z,4.10
2022-07-27T14:10:42.029Z,1.38
2022-07-27T14:13:13.138Z,2.38
2022-07-27T14:15:53.209Z,3.08
2022-07-27T14:18:27.603Z,1.90
2022-07-27T14:20:59.438Z,4.40
2022-07-27T14:23:29.534Z,0.95
2022-07-27T14:25:59.970Z,0.68
2022-07-27T14:28:29.878Z,0.63
2022-07-27T14:30:58.552Z,5.72
2022-07-27T14:33:36.627Z,2.28
2022-07-27T14:36:08.206Z,2.28
2022-07-27T14:38:37.436Z,2.58
2022-07-27T14:41:06.491Z,2.17
2022-07-27T14:43:34.953Z,2.63
2022-07-27T14:46:03.217Z,3.45
2022-07-27T14:49:04.107Z,2.45
2022-07-27T14:51:20.959Z,11.18
2022-07-27T14:53:49.191Z,1.10
2022-07-27T14:56:17.699Z,0.40
2022-07-27T14:58:46.249Z,5.07
2022-07-27T15:01:16.991Z,1.63
2022-07-27T15:03:46.345Z,0.65
2022-07-27T15:06:14.600Z,10.55
2022-07-27T15:08:44.383Z,3.15
2022-07-27T15:11:12.674Z,7.10
2022-07-27T15:13:41.169Z,11.25
2022-07-27T15:16:09.736Z,3.70
2022-07-27T15:18:39.173Z,1.02
2022-07-27T15:21:13.195Z,0.82
2022-07-27T15:23:44.790Z,5.30
2022-07-27T15:26:14.257Z,0.63
2022-07-27T15:28:42.943Z,2.40
2022-07-27T15:31:11.464Z,1.30
2022-07-27T15:33:40.225Z,4.35
2022-07-27T15:36:08.622Z,0.65
2022-07-27T15:38:36.869Z,3.80
2022-07-27T15:41:06.555Z,0.98
2022-07-27T15:43:35.456Z,1.25
2022-07-27T15:46:03.578Z,2.72
2022-07-27T15:48:31.991Z,1.98
2022-07-27T15:51:00.272Z,1.40
2022-07-27T15:53:30.060Z,0.98
2022-07-27T15:55:58.225Z,0.80
2022-07-27T15:58:27.961Z,5.03
2022-07-27T16:00:58.293Z,1.30
2022-07-27T16:03:27.440Z,1.15
2022-07-27T16:05:56.884Z,3.70
2022-07-27T16:08:27.340Z,0.75
2022-07-27T16:10:55.594Z,0.60
2022-07-27T16:13:23.907Z,2.88
2022-07-27T16:16:11.302Z,0.82
2022-07-27T16:18:39.839Z,1.88
2022-07-27T16:21:08.396Z,0.52
2022-07-27T16:23:36.617Z,1.85
2022-07-27T16:26:06.482Z,1.73
2022-07-27T16:28:39.121Z,0.63
2022-07-27T16:31:11.514Z,0.60
2022-07-27T16:33:40.850Z,0.60
2022-07-27T16:36:09.805Z,0.75
2022-07-27T16:38:38.362Z,0.88
2022-07-27T16:41:17.436Z,3.42
2022-07-27T16:43:45.822Z,0.90
2022-07-27T16:46:15.448Z,4.18
2022-07-27T16:48:43.950Z,3.60
2022-07-27T16:51:14.680Z,0.75
2022-07-27T16:53:44.551Z,1.80
2022-07-27T16:56:13.401Z,3.22
2022-07-27T16:58:41.809Z,2.40
2022-07-27T17:01:10.291Z,0.70
2022-07-27T17:03:51.508Z,0.52
2022-07-27T17:06:21.054Z,1.55
2022-07-27T17:08:49.284Z,1.65
2022-07-27T17:11:21.633Z,2.50
2022-07-27T17:13:51.118Z,1.33
2022-07-27T17:16:28.122Z,1.13
2022-07-27T17:18:58.038Z,1.27
2022-07-27T17:21:26.251Z,1.20
2022-07-27T17:23:54.902Z,1.15
2022-07-27T17:26:25.145Z,1.42
2022-07-27T17:28:54.081Z,0.90
2022-07-27T17:31:22.718Z,1.05
2022-07-27T17:33:51.788Z,0.82
2022-07-27T17:36:21.988Z,1.45
2022-07-27T17:38:51.251Z,1.05
2022-07-27T17:41:24.520Z,2.28
2022-07-27T17:43:54.295Z,2.08
2022-07-27T17:46:23.211Z,0.50
2022-07-27T17:48:52.970Z,1.45
2022-07-27T17:51:25.403Z,2.05
2022-07-27T17:53:53.957Z,1.25
2022-07-27T17:56:22.198Z,1.25
2022-07-27T17:58:51.351Z,2.47
2022-07-27T18:01:47.287Z,0.50
2022-07-27T18:04:08.071Z,2.00
2022-07-27T18:06:37.863Z,2.88
2022-07-27T18:09:07.175Z,2.05
2022-07-27T18:11:35.494Z,1.65
2022-07-27T18:14:03.790Z,1.48
2022-07-27T18:16:38.063Z,4.13
2022-07-27T18:19:08.563Z,2.15
2022-07-27T18:21:38.425Z,1.00
2022-07-27T18:24:07.071Z,1.85
2022-07-27T18:26:38.727Z,0.65
2022-07-27T18:29:07.572Z,1.75
2022-07-27T18:31:36.075Z,0.95
2022-07-27T18:34:07.929Z,1.25
2022-07-27T18:36:42.635Z,1.30
2022-07-27T18:39:11.206Z,0.57
2022-07-27T18:41:40.777Z,0.90
2022-07-27T18:44:09.617Z,2.17
2022-07-27T18:46:38.083Z,0.60
2022-07-27T18:49:06.540Z,2.58
2022-07-27T18:51:37.225Z,1.55
2022-07-27T18:54:07.029Z,4.25
2022-07-27T18:56:35.159Z,0.50
2022-07-27T18:59:03.526Z,1.83
2022-07-27T19:01:32.212Z,3.38
2022-07-27T19:04:00.517Z,0.82
2022-07-27T19:06:31.007Z,0.88
2022-07-27T19:08:59.161Z,0.60
2022-07-27T19:11:28.846Z,0.80
2022-07-27T19:13:58.053Z,5.07
2022-07-27T19:16:27.101Z,2.78
2022-07-27T19:18:55.427Z,1.15
2022-07-27T19:21:24.264Z,4.03
2022-07-27T19:23:52.657Z,2.58
2022-07-27T19:26:21.013Z,0.70
2022-07-27T19:28:50.651Z,2.72
2022-07-27T19:31:23.287Z,0.52
2022-07-27T19:33:52.436Z,1.08
2022-07-27T19:36:20.830Z,0.40
2022-07-27T19:38:49.129Z,0.70
2022-07-27T19:41:17.857Z,0.57
2022-07-27T19:43:46.090Z,0.70
2022-07-27T19:46:15.931Z,0.65
2022-07-27T19:51:16.037Z,1.75
2022-07-27T19:53:44.458Z,2.55
2022-07-27T19:56:12.805Z,0.50
2022-07-27T19:58:41.145Z,0.38
2022-07-27T20:01:10.386Z,1.02
2022-07-27T20:03:48.695Z,0.60
2022-07-27T20:06:22.553Z,1.30
2022-07-27T20:08:50.944Z,1.15
2022-07-27T20:11:19.398Z,1.73
2022-07-27T20:13:47.722Z,0.40
2022-07-27T20:16:17.895Z,0.60
2022-07-27T20:18:47.706Z,0.70
2022-07-27T20:21:23.131Z,1.67
2022-07-27T20:23:52.290Z,1.50
2022-07-27T20:26:20.801Z,1.25
2022-07-27T20:28:50.325Z,1.17
2022-07-27T20:31:18.879Z,1.08
2022-07-27T20:33:48.738Z,1.40
2022-07-27T20:36:17.013Z,0.85
2022-07-27T20:38:45.256Z,0.73
2022-07-27T20:41:13.496Z,1.27
2022-07-27T20:43:41.748Z,2.75
2022-07-27T20:46:10.154Z,1.40
2022-07-27T20:48:39.537Z,6.40
2022-07-27T20:51:09.177Z,1.10
2022-07-27T20:53:37.410Z,5.88
2022-07-27T20:56:06.206Z,1.67
2022-07-27T20:58:34.855Z,1.70
2022-07-27T21:01:03.444Z,1.40
2022-07-27T21:03:32.401Z,1.40
2022-07-27T21:06:00.717Z,1.25
2022-07-27T21:08:30.519Z,1.77
2022-07-27T21:10:58.796Z,1.52
2022-07-27T21:13:27.048Z,1.50
2022-07-27T21:15:55.261Z,4.40
2022-07-27T21:18:23.525Z,0.52
2022-07-27T21:20:51.748Z,0.70
2022-07-27T21:23:37.123Z,0.60
2022-07-27T21:26:06.655Z,1.33
2022-07-27T21:28:35.870Z,1.27
2022-07-27T21:31:04.797Z,0.57
2022-07-27T21:33:39.166Z,2.42
2022-07-27T21:36:08.690Z,1.15
2022-07-27T21:38:36.951Z,1.67
2022-07-27T21:41:07.104Z,1.02
2022-07-27T21:43:35.586Z,0.80
2022-07-27T21:46:04.119Z,0.47
2022-07-27T21:48:32.822Z,1.25
2022-07-27T21:51:01.170Z,0.80
2022-07-27T21:53:29.463Z,1.45
2022-07-27T21:55:58.243Z,1.55
2022-07-27T21:58:28.225Z,0.85
2022-07-27T22:00:56.509Z,2.45
2022-07-27T22:03:24.870Z,1.52
2022-07-27T22:05:53.111Z,1.15
2022-07-27T22:08:22.613Z,0.70
2022-07-27T22:10:50.848Z,2.35
2022-07-27T22:13:19.242Z,1.38
2022-07-27T22:15:49.811Z,1.90
2022-07-27T22:18:18.468Z,4.60
2022-07-27T22:20:46.710Z,1.27
2022-07-27T22:23:14.997Z,3.50
2022-07-27T22:25:43.800Z,1.42
2022-07-27T22:28:12.316Z,1.08
2022-07-27T22:30:41.489Z,5.43
2022-07-27T22:33:11.037Z,1.98
2022-07-27T22:35:39.191Z,1.08
2022-07-27T22:38:07.725Z,1.27
2022-07-27T22:40:35.854Z,2.10
2022-07-27T22:43:04.114Z,4.63
2022-07-27T22:45:32.390Z,1.95
2022-07-27T22:48:00.583Z,2.60
2022-07-27T22:50:30.146Z,1.92
2022-07-27T22:52:58.607Z,1.60
2022-07-27T22:55:27.346Z,2.80
2022-07-27T22:57:55.571Z,1.65
2022-07-27T23:00:23.970Z,2.30
2022-07-27T23:02:52.224Z,2.35
2022-07-27T23:05:20.559Z,1.38
2022-07-27T23:07:50.549Z,1.85
2022-07-27T23:10:36.264Z,2.90
2022-07-27T23:13:04.578Z,2.70
2022-07-27T23:15:32.766Z,3.47
2022-07-27T23:18:00.900Z,1.70
2022-07-27T23:20:29.206Z,3.05
2022-07-27T23:22:58.814Z,2.80
2022-07-27T23:25:34.960Z,2.20
2022-07-27T23:28:05.081Z,0.90
2022-07-27T23:30:33.496Z,1.65
2022-07-27T23:33:01.743Z,4.50
2022-07-27T23:35:30.278Z,3.05
2022-07-27T23:38:00.031Z,1.08
2022-07-27T23:40:28.636Z,0.88
2022-07-27T23:42:57.012Z,2.55
2022-07-27T23:45:25.247Z,0.88
2022-07-27T23:47:53.544Z,1.33
2022-07-27T23:50:22.158Z,1.27
2022-07-27T23:52:50.711Z,1.42
2022-07-27T23:55:20.351Z,1.42
2022-07-27T23:57:48.619Z,1.25
